Flight Track Log - Related Links

Times and Time Zones

All times are in EDT time to prevent confusion due to time zone crossing. See the SWA395 flight status page for this flight to view local times or setup timezone preferences in your user account.

Time Position Orientation Groundspeed Altitude Reporting Facility
EDT Latitude Longitude Course Direction KTS MPH feet Rate Location/Type
Sun 04:23:31 PM 36.1956 -95.8658 90° East 173 199 1,600  Level Kansas City Center
Sun 04:23:55 PM 36.1956 -95.8425 90° East 172 198 2,200 2,118 Climbing Kansas City Center
Sun 04:24:56 PM 36.2011 -95.7617 85° East 254 292 4,600 2,278 Climbing Kansas City Center
Sun 04:25:14 PM 36.2117 -95.7447 52° Northeast 243 280 5,200 3,138 Climbing Kansas City Center
Sun 04:26:01 PM 36.2783 -95.7567 352° North 301 346 8,000 3,097 Climbing Kansas City Center
Sun 04:26:16 PM 36.2831 -95.7628 314° West 286 329 8,400 2,385 Climbing Kansas City Center
Sun 04:27:19 PM 36.2797 -95.8497 267° West 262 302 11,100 2,732 Climbing Kansas City Center
Sun 04:28:19 PM 36.2544 -95.9803 257° West 319 367 14,000 2,855 Climbing Kansas City Center
Sun 04:29:23 PM 36.2286 -96.0964 255° West 342 394 17,000 2,857 Climbing Kansas City Center
Sun 04:30:25 PM 36.2022 -96.2161 255° West 356 410 20,000 2,829 Climbing Kansas City Center
Sun 04:31:26 PM 36.1758 -96.3411 255° West 369 425 22,800 2,311 Climbing Kansas City Center
Sun 04:32:27 PM 36.1497 -96.4656 255° West 373 429 24,700 1,632 Climbing Kansas City Center
Sun 04:33:31 PM 36.1217 -96.5964 255° West 386 444 26,200 1,548 Climbing Kansas City Center
Sun 04:34:31 PM 36.0897 -96.7447 255° West 406 467 27,900 2,129 Climbing Kansas City Center
Sun 04:35:35 PM 36.0603 -96.8786 255° West 407 468 30,600 2,129 Climbing Kansas City Center
Sun 04:36:35 PM 36.0336 -97.0042 255° West 389 448 32,300 1,984 Climbing Kansas City Center
Sun 04:37:39 PM 36.0328 -97.1553 270° West 371 427 34,700 1,776 Climbing Kansas City Center
Sun 04:38:40 PM 36.0331 -97.2767 270° West 361 415 36,000 639 Climbing Kansas City Center
Sun 04:39:41 PM 36.0333 -97.3978 270° West 357 411 36,000  Level Kansas City Center
Sun 04:40:43 PM 36.0325 -97.5200 270° West 358 412 36,000  Level Kansas City Center
Sun 04:41:47 PM 36.0319 -97.6428 270° West 359 413 36,000  Level Kansas City Center
Sun 04:42:47 PM 36.0319 -97.7889 270° West 358 412 36,000  Level Kansas City Center
Sun 04:43:50 PM 36.0317 -97.9119 270° West 359 413 36,000  Level Kansas City Center
Sun 04:44:51 PM 36.0303 -98.0336 269° West 357 411 36,000  Level Kansas City Center
Sun 04:45:55 PM 36.0300 -98.1672 270° West 358 412 36,000  Level Kansas City Center
Sun 04:46:55 PM 36.0286 -98.2872 269° West 353 406 36,000  Level Kansas City Center
Sun 04:47:57 PM 36.0278 -98.4081 270° West 351 404 36,000  Level Kansas City Center
Sun 04:49:01 PM 36.0264 -98.5303 269° West 354 407 36,000  Level Kansas City Center
Sun 04:50:02 PM 36.0253 -98.6519 269° West 355 409 36,000  Level Kansas City Center
Sun 04:51:05 PM 36.0236 -98.7831 269° West 352 405 36,000  Level Kansas City Center
Sun 04:52:06 PM 36.0219 -98.9033 269° West 352 405 36,000  Level Kansas City Center
Sun 04:53:08 PM 36.0203 -99.0258 269° West 356 410 36,000  Level Kansas City Center
Sun 04:54:10 PM 36.0192 -99.1458 269° West 354 407 36,000  Level Kansas City Center
Sun 04:55:11 PM 36.0189 -99.2894 270° West 351 404 36,000  Level Kansas City Center
Sun 04:56:14 PM 36.0144 -99.4144 268° West 350 403 36,000  Level Kansas City Center
Sun 04:57:15 PM 36.0122 -99.5339 269° West 347 399 36,000  Level Kansas City Center
Sun 04:58:19 PM 36.0100 -99.6539 269° West 349 402 36,000  Level Kansas City Center
Sun 04:59:21 PM 36.0072 -99.7742 268° West 349 402 36,000  Level Kansas City Center
Sun 05:00:21 PM 36.0047 -99.8942 269° West 349 402 36,000  Level Kansas City Center
Sun 05:01:24 PM 36.0019 -100.0153 268° West 351 404 36,000  Level Kansas City Center
Sun 05:02:27 PM 35.9981 -100.1600 268° West 351 404 36,000  Level Albuquerque Center
Sun 05:03:29 PM 35.9953 -100.2819 268° West 354 407 36,000  Level Albuquerque Center
Sun 05:04:31 PM 35.9925 -100.4031 268° West 353 406 36,000  Level Albuquerque Center
Sun 05:05:33 PM 35.9889 -100.5242 268° West 353 406 36,000  Level Albuquerque Center
Sun 05:06:35 PM 35.9856 -100.6469 268° West 354 407 36,000  Level Albuquerque Center
Sun 05:07:37 PM 35.9825 -100.7700 268° West 357 411 36,000  Level Albuquerque Center
Sun 05:08:39 PM 35.9775 -100.9150 268° West 354 407 36,000  Level Albuquerque Center
Sun 05:09:41 PM 35.9747 -101.0347 268° West 355 409 36,000  Level Albuquerque Center
Sun 05:10:43 PM 35.9706 -101.1547 268° West 354 407 36,000  Level Albuquerque Center
Sun 05:11:45 PM 35.9667 -101.2756 268° West 354 407 36,000  Level Albuquerque Center
Sun 05:12:46 PM 35.9636 -101.3975 268° West 357 411 36,000  Level Albuquerque Center
Sun 05:13:48 PM 35.9583 -101.5433 267° West 358 412 36,000  Level Albuquerque Center
Sun 05:14:50 PM 35.9539 -101.6681 268° West 363 418 36,000  Level Albuquerque Center
Sun 05:15:52 PM 35.9497 -101.7903 268° West 362 417 36,000  Level Albuquerque Center
Sun 05:16:54 PM 35.9439 -101.9144 267° West 363 418 36,000  Level Albuquerque Center
Sun 05:17:56 PM 35.9397 -102.0433 268° West 374 430 36,000  Level Albuquerque Center
Sun 05:18:58 PM 35.9339 -102.1678 267° West 370 426 36,000  Level Albuquerque Center
Sun 05:20:00 PM 35.9278 -102.3172 267° West 366 421 36,000  Level Albuquerque Center
Sun 05:21:02 PM 35.9225 -102.4417 267° West 366 421 36,000  Level Albuquerque Center
Sun 05:22:04 PM 35.9172 -102.5653 267° West 364 419 36,000  Level Albuquerque Center
Sun 05:23:06 PM 35.9122 -102.6900 267° West 365 420 36,000  Level Albuquerque Center
Sun 05:24:07 PM 35.9058 -102.8142 266° West 365 420 36,000  Level Albuquerque Center
Sun 05:25:09 PM 35.9011 -102.9414 267° West 357 411 36,000  Level Albuquerque Center
Sun 05:26:11 PM 35.8936 -103.0836 266° West 355 409 36,000  Level Albuquerque Center
Sun 05:27:13 PM 35.8881 -103.2072 267° West 358 412 36,000  Level Albuquerque Center
Sun 05:28:15 PM 35.8817 -103.3319 266° West 362 417 36,000  Level Albuquerque Center
Sun 05:29:17 PM 35.8747 -103.4575 266° West 364 419 36,000  Level Albuquerque Center
Sun 05:30:19 PM 35.8692 -103.5819 267° West 363 418 36,000  Level Albuquerque Center
Sun 05:31:20 PM 35.8631 -103.7081 267° West 365 420 36,000  Level Albuquerque Center
Sun 05:32:22 PM 35.8556 -103.8356 266° West 370 426 36,000  Level Albuquerque Center
Sun 05:33:24 PM 35.8489 -103.9633 266° West 372 428 36,000  Level Albuquerque Center
Sun 05:34:26 PM 35.8400 -104.1119 266° West 372 428 36,000  Level Albuquerque Center
Sun 05:35:28 PM 35.8328 -104.2403 266° West 373 429 36,000  Level Albuquerque Center
Sun 05:36:30 PM 35.8250 -104.3683 266° West 374 430 36,000  Level Albuquerque Center
Sun 05:37:32 PM 35.8175 -104.4972 266° West 375 432 36,000  Level Albuquerque Center
Sun 05:38:34 PM 35.8094 -104.6261 266° West 376 433 36,000  Level Albuquerque Center
Sun 05:39:35 PM 35.8022 -104.7550 266° West 377 434 36,000  Level Albuquerque Center
Sun 05:40:37 PM 35.7914 -104.9078 265° West 380 437 36,000  Level Albuquerque Center
Sun 05:41:39 PM 35.7831 -105.0389 266° West 382 440 36,000  Level Albuquerque Center
Sun 05:42:41 PM 35.7756 -105.1703 266° West 382 440 36,000  Level Albuquerque Center
Sun 05:43:43 PM 35.7664 -105.2981 265° West 376 433 36,000  Level Albuquerque Center
Sun 05:44:45 PM 35.7581 -105.4286 266° West 377 434 36,000  Level Albuquerque Center
Sun 05:45:47 PM 35.7469 -105.5725 265° West 400 460 36,000  Level Albuquerque Center
Sun 05:46:48 PM 35.7383 -105.7039 265° West 392 451 36,000  Level Albuquerque Center
Sun 05:47:50 PM 35.7311 -105.8342 266° West 385 443 36,000  Level Albuquerque Center
Sun 05:48:52 PM 35.7217 -105.9597 265° West 376 433 36,000  Level Albuquerque Center
Sun 05:49:54 PM 35.7122 -106.0861 265° West 373 429 36,000  Level Albuquerque Center
Sun 05:50:56 PM 35.7011 -106.2417 265° West 380 437 36,000  Level Albuquerque Center
Sun 05:51:57 PM 35.6922 -106.3653 265° West 380 437 36,000  Level Albuquerque Center
Sun 05:52:59 PM 35.6817 -106.5094 265° West 380 437 36,000  Level Albuquerque Center
Sun 05:54:01 PM 35.6719 -106.6350 265° West 384 442 36,000  Level Albuquerque Center
Sun 05:55:03 PM 35.6600 -106.7806 264° West 383 441 36,000  Level Albuquerque Center
Sun 05:56:05 PM 35.6494 -106.9044 264° West 382 440 36,000  Level Albuquerque Center
Sun 05:57:06 PM 35.6389 -107.0400 265° West 379 436 36,000  Level Albuquerque Center
Sun 05:58:08 PM 35.6294 -107.1678 265° West 378 435 36,000  Level Albuquerque Center
Sun 05:59:10 PM 35.6172 -107.2950 263° West 381 438 36,000  Level Albuquerque Center
Sun 06:00:12 PM 35.6069 -107.4400 265° West 381 438 36,000  Level Albuquerque Center
Sun 06:01:13 PM 35.5950 -107.5664 263° West 386 444 36,000  Level Albuquerque Center
Sun 06:02:15 PM 35.5819 -107.7139 264° West 389 448 36,000  Level Albuquerque Center
Sun 06:03:16 PM 35.5714 -107.8400 264° West 388 447 36,000  Level Albuquerque Center
Sun 06:04:18 PM 35.5603 -107.9675 264° West 389 448 36,000  Level Albuquerque Center
Sun 06:05:20 PM 35.5472 -108.1158 264° West 391 450 36,000  Level Albuquerque Center
Sun 06:06:22 PM 35.5358 -108.2425 264° West 390 449 36,000  Level Albuquerque Center
Sun 06:07:23 PM 35.5214 -108.3922 263° West 392 451 36,000  Level Albuquerque Center
Sun 06:08:25 PM 35.5108 -108.5194 264° West 391 450 36,000  Level Albuquerque Center
Sun 06:09:27 PM 35.4989 -108.6467 263° West 390 449 36,000  Level Albuquerque Center
Sun 06:10:28 PM 35.4847 -108.7933 263° West 388 447 36,000  Level Albuquerque Center
Sun 06:11:30 PM 35.4786 -108.9203 267° West 387 445 36,000  Level Albuquerque Center
Sun 06:12:32 PM 35.4875 -109.0700 274° West 390 449 36,000  Level Albuquerque Center
Sun 06:13:34 PM 35.4931 -109.1978 273° West 390 449 36,000  Level Albuquerque Center
Sun 06:14:35 PM 35.4994 -109.3267 274° West 393 452 36,000  Level Albuquerque Center
Sun 06:15:37 PM 35.5081 -109.4772 274° West 394 453 36,000  Level Albuquerque Center
Sun 06:16:39 PM 35.5128 -109.6044 273° West 389 448 36,000  Level Albuquerque Center
Sun 06:17:41 PM 35.5183 -109.7531 273° West 388 447 36,000  Level Albuquerque Center
Sun 06:18:42 PM 35.5231 -109.8803 273° West 391 450 36,000  Level Albuquerque Center
Sun 06:19:44 PM 35.5289 -110.0303 273° West 392 451 36,000  Level Albuquerque Center
Sun 06:20:46 PM 35.5322 -110.1586 272° West 394 453 36,000  Level Albuquerque Center
Sun 06:21:48 PM 35.5364 -110.2883 272° West 396 456 36,000 -341 Level Albuquerque Center
Sun 06:22:49 PM 35.5433 -110.4400 273° West 398 458 35,300 -780 Descending Albuquerque Center
Sun 06:23:51 PM 35.5481 -110.5708 273° West 400 460 34,400 -629 Descending Albuquerque Center
Sun 06:24:53 PM 35.5539 -110.7250 273° West 404 465 34,000 -195 Descending Albuquerque Center
Sun 06:25:54 PM 35.5569 -110.8564 272° West 404 465 34,000  Level Albuquerque Center
Sun 06:26:56 PM 35.5639 -111.0086 273° West 401 461 34,000  Level Albuquerque Center
Sun 06:27:58 PM 35.5678 -111.1397 272° West 401 461 34,000 -293 Level Albuquerque Center
Sun 06:28:59 PM 35.5725 -111.2722 273° West 405 466 33,400 -780 Descending Albuquerque Center
Sun 06:30:01 PM 35.5781 -111.4278 273° West 409 471 32,400 -968 Descending Albuquerque Center
Sun 06:31:03 PM 35.5822 -111.5619 272° West 419 482 31,400 -976 Descending Albuquerque Center
Sun 06:32:04 PM 35.5853 -111.6956 272° West 404 465 30,400 -683 Descending Albuquerque Center
Sun 06:33:06 PM 35.5886 -111.8267 272° West 391 450 30,000 -194 Descending Albuquerque Center
Sun 06:34:08 PM 35.5922 -111.9889 272° West 396 456 30,000  Level Albuquerque Center
Sun 06:35:09 PM 35.5972 -112.1267 273° West 403 464 30,000  Level Albuquerque Center
Sun 06:36:11 PM 35.6011 -112.2667 272° West 408 470 30,000  Level Albuquerque Center
Sun 06:37:13 PM 35.6039 -112.4097 271° West 411 473 30,000 -222 Level Albuquerque Center
Sun 06:37:32 PM 35.6050 -112.4608 272° West 411 473 29,700 -963 Descending Los Angeles Center
Sun 06:38:34 PM 35.6072 -112.5672 272° West 402 463 28,700 -823 Descending Los Angeles Center
Sun 06:39:36 PM 35.6106 -112.7178 272° West 372 428 28,000 -336 Descending Los Angeles Center
Sun 06:40:39 PM 35.6133 -112.8450 272° West 372 428 28,000  Level Los Angeles Center
Sun 06:41:41 PM 35.6150 -112.9756 271° West 371 427 28,000  Level Los Angeles Center
Sun 06:42:43 PM 35.6183 -113.1272 272° West 371 427 28,000  Level Los Angeles Center
Sun 06:43:45 PM 35.6208 -113.2533 271° West 370 426 28,000  Level Los Angeles Center
Sun 06:44:47 PM 35.6219 -113.3628 271° West 368 423 28,000 -629 Level Los Angeles Center
Sun 06:45:49 PM 35.6244 -113.5119 271° West 368 423 26,700 -1,742 Descending Los Angeles Center
Sun 06:46:51 PM 35.6361 -113.6308 277° West 353 406 24,400 -2,129 Descending Los Angeles Center
Sun 06:47:53 PM 35.6536 -113.7444 281° West 344 396 22,300 -2,064 Descending Los Angeles Center
Sun 06:48:56 PM 35.6694 -113.8564 280° West 335 386 20,100 -1,632 Descending Los Angeles Center
Sun 06:49:58 PM 35.6844 -113.9656 280° West 327 376 18,900 -1,839 Descending Los Angeles Center
Sun 06:51:00 PM 35.7017 -114.0911 280° West 312 359 16,300 -2,283 Descending Los Angeles Center
Sun 06:51:51 PM 35.7158 -114.1886 280° West 319 367 14,600 -1,895 Descending Los Angeles Center
Sun 06:52:16 PM 35.7253 -114.2306 286° West 322 371 13,900 -1,808 Descending Los Angeles Center
Sun 06:53:04 PM 35.7319 -114.3033 276° West 316 364 12,400 -1,036 Descending Los Angeles Center
Sun 06:54:06 PM 35.7642 -114.3922 294° West 310 357 12,000 -627 Descending Los Angeles Center
Sun 06:55:18 PM 35.8581 -114.4539 332° Northwest 288 331 11,000 -1,258 Descending Los Angeles Center
Sun 06:56:10 PM 35.9044 -114.5167 312° West 287 330 9,400 -1,579 Descending Los Angeles Center
Sun 06:57:12 PM 35.9606 -114.5844 316° Northwest 284 327 8,000 -677 Descending Los Angeles Center
Sun 06:58:14 PM 35.9972 -114.6597 301° West 270 311 8,000 -532 Level Los Angeles Center
Sun 06:59:16 PM 36.0286 -114.7447 295° West 239 275 6,900 -720 Descending Los Angeles Center
Sun 07:00:19 PM 36.0533 -114.8078 296° West 240 276 6,500 -672 Descending Los Angeles Center
Sun 07:01:21 PM 36.0769 -114.9000 288° West 238 274 5,500 -968 Descending Los Angeles Center
Sun 07:02:23 PM 36.0733 -114.9700 266° West 217 250 4,500 -968 Descending Los Angeles Center
Sun 07:03:25 PM 36.0744 -115.0339 271° West 199 229 3,500 -927 Descending Los Angeles Center
Sun 07:04:26 PM 36.0731 -115.0947 268° West 164 189 2,600 -726 Descending Los Angeles Center
Sun 07:05:29 PM 36.0739 -115.1447 271° West 170 196 2,000 -571 Descending Los Angeles Center
Sun 07:07:00 PM 36.0667 -115.1500 270° West  Level FlightAware Approximate

Login

Don't have an account? Register now (free) for customized features, flight alerts, and more!